Time;durP1;ratioP1;P1;durP2;ratioP2;P2;SDS_P1;SDS_P2;PMS_P1;PMS_P2;Temp;Humidity;BMP_temperature;BMP_pressure;BME280_temperature;BME280_humidity;BME280_pressure;Samples;Min_cycle;Max_cycle;Signal;HPM_P1;HPM_P2
2021/08/17 00:01:59;;;;;;;5.63;4.97;;;;;;;11.00;100.00;96127.34;5010345;28;20478;-74
2021/08/17 00:04:24;;;;;;;5.67;4.70;;;;;;;10.89;100.00;96115.00;5011376;28;20972;-74
2021/08/17 00:06:50;;;;;;;5.35;4.63;;;;;;;10.81;100.00;96121.56;5009866;28;20432;-74
2021/08/17 00:09:17;;;;;;;8.40;5.13;;;;;;;10.79;100.00;96120.81;5011416;28;20412;-74
2021/08/17 00:11:42;;;;;;;5.97;4.60;;;;;;;10.75;100.00;96121.91;5011500;28;20416;-74
2021/08/17 00:14:09;;;;;;;5.73;4.50;;;;;;;10.74;100.00;96126.28;5011645;28;20436;-74
2021/08/17 00:16:35;;;;;;;7.20;4.93;;;;;;;10.72;100.00;96122.13;5011077;28;21310;-74
2021/08/17 00:19:00;;;;;;;5.43;4.63;;;;;;;10.66;100.00;96121.53;5011533;28;20443;-74
2021/08/17 00:21:26;;;;;;;5.33;4.60;;;;;;;10.71;100.00;96118.66;5009991;28;20462;-74
2021/08/17 00:23:51;;;;;;;4.73;4.27;;;;;;;10.74;100.00;96125.44;5011362;28;20797;-74
2021/08/17 00:26:17;;;;;;;5.73;4.27;;;;;;;10.78;100.00;96122.56;5011089;28;20452;-74
2021/08/17 00:28:42;;;;;;;5.10;4.57;;;;;;;10.81;100.00;96131.94;5009359;28;20432;-74
2021/08/17 00:31:09;;;;;;;5.70;4.80;;;;;;;10.80;100.00;96131.09;5010702;28;20420;-74
2021/08/17 00:33:35;;;;;;;5.45;4.60;;;;;;;10.61;100.00;96135.69;5010977;28;20409;-74
2021/08/17 00:36:02;;;;;;;6.47;4.90;;;;;;;10.71;100.00;96141.97;5009760;28;20424;-74
2021/08/17 00:38:27;;;;;;;7.30;5.03;;;;;;;10.71;100.00;96146.34;5010997;28;20424;-74
2021/08/17 00:40:53;;;;;;;6.85;4.75;;;;;;;10.63;100.00;96149.38;5010951;28;20424;-74
2021/08/17 00:43:19;;;;;;;7.95;4.78;;;;;;;10.60;100.00;96154.72;5010920;28;20417;-74
2021/08/17 00:45:44;;;;;;;8.00;4.10;;;;;;;10.39;100.00;96154.19;5010756;28;20498;-74
2021/08/17 00:48:11;;;;;;;5.55;4.95;;;;;;;10.38;100.00;96160.25;5010550;28;20428;-75
2021/08/17 00:50:36;;;;;;;7.13;5.22;;;;;;;10.25;100.00;96164.44;5010930;28;20416;-74
2021/08/17 00:53:03;;;;;;;7.77;4.67;;;;;;;10.26;100.00;96171.31;5010926;28;20417;-74
2021/08/17 00:55:29;;;;;;;7.13;4.75;;;;;;;10.16;100.00;96165.78;5010619;28;20440;-74
2021/08/17 00:57:56;;;;;;;6.35;4.43;;;;;;;10.15;100.00;96171.84;5009543;28;20421;-74
2021/08/17 01:00:22;;;;;;;5.68;4.72;;;;;;;10.17;100.00;96175.22;5010919;28;20463;-74
2021/08/17 01:02:48;;;;;;;7.53;5.00;;;;;;;10.15;100.00;96157.16;5010810;28;20859;-74
2021/08/17 01:05:16;;;;;;;5.82;4.65;;;;;;;10.16;100.00;96165.78;5010505;28;20413;-74
2021/08/17 01:07:42;;;;;;;5.15;4.43;;;;;;;10.17;100.00;96175.22;5010781;28;20424;-74
2021/08/17 01:10:09;;;;;;;4.83;4.17;;;;;;;10.41;100.00;96175.63;5010593;28;20419;-74
2021/08/17 01:12:35;;;;;;;6.88;4.25;;;;;;;10.59;100.00;96176.38;5010701;28;20933;-74
2021/08/17 01:15:01;;;;;;;6.50;4.70;;;;;;;10.51;100.00;96181.16;5010713;28;20452;-74
2021/08/17 01:17:26;;;;;;;5.70;4.73;;;;;;;10.43;100.00;96188.50;5010290;28;20452;-74
2021/08/17 01:19:52;;;;;;;6.83;4.60;;;;;;;10.45;100.00;96182.31;5010602;28;20459;-74
2021/08/17 01:22:19;;;;;;;14.33;5.17;;;;;;;10.18;100.00;96180.28;5009250;28;20464;-74
2021/08/17 01:24:44;;;;;;;5.50;4.20;;;;;;;10.15;100.00;96179.63;5010553;28;20417;-74
2021/08/17 01:27:12;;;;;;;5.80;4.45;;;;;;;10.08;100.00;96186.88;5010284;28;20413;-75
2021/08/17 01:29:38;;;;;;;7.35;5.07;;;;;;;10.15;100.00;96182.22;5010362;28;20472;-74
2021/08/17 01:32:04;;;;;;;7.45;4.90;;;;;;;10.14;100.00;96190.91;5010250;28;20508;-74
2021/08/17 01:34:29;;;;;;;6.47;4.82;;;;;;;10.39;100.00;96188.69;5010395;28;20521;-74
2021/08/17 01:36:54;;;;;;;5.27;4.13;;;;;;;10.60;100.00;96190.97;5010198;28;20420;-74
2021/08/17 01:39:20;;;;;;;6.13;4.63;;;;;;;10.77;100.00;96192.63;5010629;28;20467;-74
2021/08/17 01:41:46;;;;;;;6.10;4.50;;;;;;;10.97;100.00;96204.44;5012709;28;20475;-74
2021/08/17 01:44:13;;;;;;;12.38;4.68;;;;;;;11.11;98.90;96205.31;5013869;28;20408;-74
2021/08/17 01:46:41;;;;;;;6.40;4.55;;;;;;;11.10;99.49;96192.44;5013365;28;20424;-74
2021/08/17 01:49:06;;;;;;;6.00;4.43;;;;;;;11.22;96.23;96196.91;5013689;28;20425;-74
2021/08/17 01:51:32;;;;;;;7.13;4.70;;;;;;;11.11;97.65;96204.47;5013778;28;20467;-74
2021/08/17 01:53:58;;;;;;;5.18;4.18;;;;;;;11.08;98.45;96207.25;5013837;28;21030;-74
2021/08/17 01:56:24;;;;;;;7.60;4.00;;;;;;;10.90;96.87;96207.41;5013501;28;20926;-74
2021/08/17 01:58:49;;;;;;;6.20;4.60;;;;;;;10.64;99.02;96210.59;5013591;28;20431;-75
2021/08/17 02:01:16;;;;;;;6.10;4.10;;;;;;;10.69;99.38;96206.00;5013296;28;20463;-75
2021/08/17 02:03:41;;;;;;;6.50;4.57;;;;;;;10.80;98.52;96201.06;5013593;28;20420;-75
2021/08/17 02:06:09;;;;;;;5.87;4.67;;;;;;;10.74;99.88;96205.75;5013405;28;20417;-75
2021/08/17 02:08:34;;;;;;;6.22;4.88;;;;;;;10.89;98.88;96212.66;5012262;28;20455;-75
2021/08/17 02:11:00;;;;;;;4.95;4.40;;;;;;;10.91;98.90;96210.81;5013479;28;20408;-75
2021/08/17 02:13:27;;;;;;;8.83;5.10;;;;;;;10.96;98.07;96211.38;5020139;28;20890;-74
2021/08/17 02:15:53;;;;;;;6.47;4.50;;;;;;;11.01;98.27;96214.56;5025759;28;20929;-75
2021/08/17 02:18:19;;;;;;;7.67;4.50;;;;;;;10.83;98.12;96213.03;5025805;28;20512;-74
2021/08/17 02:20:45;;;;;;;6.07;4.40;;;;;;;10.98;97.93;96217.31;5025767;28;20424;-74
2021/08/17 02:23:11;;;;;;;6.97;4.80;;;;;;;11.06;98.14;96216.88;5018916;28;20441;-74
2021/08/17 02:25:36;;;;;;;5.55;4.45;;;;;;;10.97;97.17;96226.00;5013275;28;20436;-74
2021/08/17 02:28:02;;;;;;;9.73;4.82;;;;;;;10.85;97.89;96227.53;5013136;28;20424;-74
2021/08/17 02:30:28;;;;;;;6.45;4.43;;;;;;;10.79;98.49;96222.72;5013080;28;20435;-74
2021/08/17 02:32:54;;;;;;;6.30;4.75;;;;;;;10.81;98.05;96226.03;5013102;28;20425;-74
2021/08/17 02:35:21;;;;;;;8.63;4.50;;;;;;;10.76;98.45;96232.41;5012673;28;20486;-74
2021/08/17 02:37:50;;;;;;;5.97;4.30;;;;;;;10.68;98.61;96226.81;5012827;28;20425;-74
2021/08/17 02:40:15;;;;;;;6.53;4.38;;;;;;;10.57;99.21;96233.44;5011512;28;20431;-74
2021/08/17 02:42:41;;;;;;;5.60;4.60;;;;;;;10.66;99.36;96227.75;5012689;28;20416;-74
2021/08/17 02:45:07;;;;;;;6.28;4.55;;;;;;;10.76;99.25;96235.00;5012482;28;20446;-74
2021/08/17 02:47:34;;;;;;;5.97;4.43;;;;;;;10.85;98.75;96232.72;5012546;28;20468;-74
2021/08/17 02:49:59;;;;;;;6.60;4.80;;;;;;;10.94;97.96;96240.88;5013157;28;20433;-75
2021/08/17 02:52:26;;;;;;;5.37;4.53;;;;;;;11.02;97.46;96236.13;5011678;28;20643;-75
2021/08/17 02:54:53;;;;;;;6.45;4.40;;;;;;;10.95;96.68;96240.00;5012583;28;20441;-76
2021/08/17 02:57:19;;;;;;;7.40;4.80;;;;;;;10.97;96.58;96238.13;5010668;28;20425;-75
2021/08/17 02:59:45;;;;;;;5.78;4.38;;;;;;;11.03;95.68;96242.97;5012555;28;20777;-76
2021/08/17 03:02:11;;;;;;;6.50;4.93;;;;;;;10.64;96.54;96236.50;5012456;28;20516;-75
2021/08/17 03:04:37;;;;;;;6.03;4.20;;;;;;;10.68;97.94;96234.59;5011591;28;20435;-75
2021/08/17 03:07:03;;;;;;;6.47;4.60;;;;;;;10.66;97.85;96242.44;5012239;28;20421;-75
2021/08/17 03:09:29;;;;;;;7.57;5.33;;;;;;;10.67;97.41;96241.53;5012296;28;20416;-76
2021/08/17 03:11:55;;;;;;;8.32;4.78;;;;;;;10.50;98.89;96239.03;5010978;28;20423;-76
2021/08/17 03:14:20;;;;;;;10.50;5.20;;;;;;;10.33;99.96;96238.19;5012706;28;20417;-75
2021/08/17 03:16:46;;;;;;;6.50;4.53;;;;;;;10.27;100.00;96243.72;5010667;28;20424;-76
2021/08/17 03:19:11;;;;;;;7.40;4.77;;;;;;;10.19;100.00;96238.06;5010827;28;20568;-76
2021/08/17 03:21:37;;;;;;;7.63;4.90;;;;;;;9.92;100.00;96241.22;5012004;28;20435;-76
2021/08/17 03:24:02;;;;;;;8.50;4.70;;;;;;;10.03;100.00;96235.47;5012048;28;20424;-76
2021/08/17 03:26:36;;;;;;;7.05;5.03;;;;;;;10.09;100.00;96236.91;5011702;28;20440;-75
2021/08/17 03:29:02;;;;;;;5.00;4.38;;;;;;;10.15;100.00;96237.41;5010884;28;20440;-75
2021/08/17 03:31:27;;;;;;;5.20;4.43;;;;;;;10.16;100.00;96233.91;5012206;28;20417;-75
2021/08/17 03:33:53;;;;;;;7.23;4.83;;;;;;;10.03;100.00;96237.22;5011868;28;20764;-76
2021/08/17 03:36:18;;;;;;;6.60;5.23;;;;;;;9.91;100.00;96238.72;5011749;28;20432;-75
2021/08/17 03:38:44;;;;;;;5.40;4.70;;;;;;;9.83;100.00;96236.53;5011791;28;20949;-76
2021/08/17 03:41:10;;;;;;;6.73;4.30;;;;;;;9.82;100.00;96234.84;5011607;28;20436;-76
2021/08/17 03:43:38;;;;;;;5.15;4.65;;;;;;;9.84;100.00;96232.19;5011706;28;20460;-76
2021/08/17 03:46:08;;;;;;;5.15;4.20;;;;;;;9.87;100.00;96238.03;5010177;28;20428;-75
2021/08/17 03:48:34;;;;;;;5.75;4.47;;;;;;;10.02;100.00;96235.56;5011701;28;20938;-75
2021/08/17 03:51:00;;;;;;;9.10;4.63;;;;;;;10.19;100.00;96236.31;5011679;28;20471;-76
2021/08/17 03:53:26;;;;;;;5.05;4.15;;;;;;;10.18;100.00;96237.25;5011492;28;20923;-76
2021/08/17 03:55:52;;;;;;;6.05;4.57;;;;;;;10.28;100.00;96242.81;5010026;28;20456;-76
2021/08/17 03:58:17;;;;;;;4.72;4.05;;;;;;;10.31;100.00;96241.81;5011375;28;20456;-76
2021/08/17 04:00:44;;;;;;;6.40;4.47;;;;;;;10.39;99.63;96244.81;5011368;28;20463;-75
2021/08/17 04:03:09;;;;;;;8.20;4.30;;;;;;;10.39;99.33;96239.63;5011272;28;20479;-76
2021/08/17 04:05:35;;;;;;;5.20;4.57;;;;;;;10.36;99.06;96240.63;5011214;28;20425;-75
2021/08/17 04:08:02;;;;;;;5.97;3.93;;;;;;;10.42;98.67;96244.66;5010174;28;20425;-75
2021/08/17 04:10:28;;;;;;;6.35;4.43;;;;;;;10.47;98.07;96244.38;5011418;28;20836;-75
2021/08/17 04:12:53;;;;;;;6.75;4.20;;;;;;;10.40;98.49;96243.88;5011397;28;20420;-75
2021/08/17 04:15:30;;;;;;;7.22;4.78;;;;;;;10.35;98.20;96249.31;5011035;28;20486;-75
2021/08/17 04:17:56;;;;;;;5.05;4.18;;;;;;;10.35;97.26;96259.69;5026419;28;20507;-76
2021/08/17 04:20:22;;;;;;;4.90;3.95;;;;;;;10.43;95.33;96259.25;5011236;28;20428;-76
2021/08/17 04:22:47;;;;;;;4.78;3.92;;;;;;;10.34;96.16;96252.81;5009712;28;20517;-76
2021/08/17 04:25:13;;;;;;;7.20;3.92;;;;;;;10.15;97.73;96257.28;5010862;28;20483;-76
2021/08/17 04:27:38;;;;;;;6.30;4.53;;;;;;;10.08;97.80;96259.34;5011210;28;20417;-76
2021/08/17 04:30:12;;;;;;;7.03;5.00;;;;;;;10.00;99.21;96261.50;5011104;28;20455;-76
2021/08/17 04:32:38;;;;;;;5.95;4.47;;;;;;;10.00;99.15;96273.63;5009880;28;20652;-74
2021/08/17 04:35:06;;;;;;;5.97;4.63;;;;;;;10.01;99.25;96270.97;5011028;28;20890;-75
2021/08/17 04:37:31;;;;;;;4.85;4.28;;;;;;;10.00;98.81;96274.44;5010744;28;20491;-75
2021/08/17 04:39:56;;;;;;;7.03;3.93;;;;;;;10.03;99.48;96273.47;5011057;28;20417;-75
2021/08/17 04:42:22;;;;;;;5.80;4.88;;;;;;;10.03;99.06;96276.03;5011019;28;20420;-76
2021/08/17 04:44:47;;;;;;;5.17;4.50;;;;;;;10.10;99.30;96274.81;5019171;28;20420;-77
2021/08/17 04:47:13;;;;;;;7.40;4.53;;;;;;;10.17;98.94;96283.94;5019671;28;20429;-77
2021/08/17 04:49:38;;;;;;;15.10;5.17;;;;;;;10.13;98.52;96283.25;5010913;28;20507;-76
2021/08/17 04:52:05;;;;;;;4.90;4.07;;;;;;;10.17;98.62;96278.75;5010818;28;20821;-77
2021/08/17 04:54:31;;;;;;;4.95;4.35;;;;;;;9.89;98.68;96281.94;5011026;28;20452;-77
2021/08/17 04:56:56;;;;;;;4.53;4.07;;;;;;;9.86;99.70;96279.50;5010532;28;20456;-76
2021/08/17 04:59:21;;;;;;;5.00;4.37;;;;;;;9.99;99.83;96282.31;5009586;28;20430;-76
2021/08/17 05:01:49;;;;;;;4.60;4.10;;;;;;;10.09;99.29;96284.34;5010656;28;20772;-76
2021/08/17 05:04:14;;;;;;;8.73;4.88;;;;;;;10.19;98.69;96287.25;5009485;28;20961;-76
2021/08/17 05:06:40;;;;;;;7.20;4.45;;;;;;;10.05;98.94;96294.91;5010373;28;20416;-77
2021/08/17 05:09:06;;;;;;;6.30;4.23;;;;;;;10.27;98.32;96286.88;5010541;28;20424;-77
2021/08/17 05:11:32;;;;;;;5.63;4.18;;;;;;;10.44;98.02;96292.00;5010682;28;20481;-76
2021/08/17 05:13:57;;;;;;;6.53;4.70;;;;;;;10.43;97.27;96294.69;5010706;28;20449;-77
2021/08/17 05:16:23;;;;;;;5.23;4.07;;;;;;;10.35;97.35;96300.28;5012810;28;20467;-77
2021/08/17 05:18:48;;;;;;;9.73;5.33;;;;;;;10.16;98.27;96305.56;5016492;28;20424;-76
2021/08/17 05:21:14;;;;;;;5.50;3.90;;;;;;;10.23;97.85;96300.88;5015764;28;20420;-77
2021/08/17 05:23:39;;;;;;;6.17;4.10;;;;;;;10.08;99.46;96298.16;5015536;28;20946;-76
2021/08/17 05:26:06;;;;;;;6.23;4.10;;;;;;;9.92;99.95;96299.88;5014087;28;20837;-78
2021/08/17 05:28:32;;;;;;;5.80;4.15;;;;;;;9.96;100.00;96303.16;5014298;28;20455;-76
2021/08/17 05:30:57;;;;;;;5.67;4.70;;;;;;;9.96;100.00;96316.09;5012950;28;20792;-76
2021/08/17 05:33:22;;;;;;;5.00;3.97;;;;;;;10.25;100.00;96310.28;5014350;28;20455;-77
2021/08/17 05:35:48;;;;;;;5.93;4.70;;;;;;;10.06;99.65;96307.78;5013763;28;20823;-76
2021/08/17 05:38:13;;;;;;;7.83;4.70;;;;;;;10.02;100.00;96310.63;5014162;28;20522;-76
2021/08/17 05:40:39;;;;;;;6.93;4.70;;;;;;;10.28;100.00;96317.03;5013947;28;20416;-77
2021/08/17 05:43:05;;;;;;;6.13;4.40;;;;;;;10.56;100.00;96309.44;5013847;28;20427;-77
2021/08/17 05:45:32;;;;;;;5.77;4.33;;;;;;;10.73;99.21;96305.97;5013832;28;20518;-76
2021/08/17 05:47:58;;;;;;;15.20;5.18;;;;;;;10.64;97.80;96309.03;5012578;28;20778;-76
2021/08/17 05:50:36;;;;;;;7.20;4.60;;;;;;;10.42;98.46;96306.78;5012754;28;20507;-76
2021/08/17 05:53:01;;;;;;;10.18;5.20;;;;;;;10.39;99.85;96305.19;5013941;28;20409;-76
2021/08/17 05:55:27;;;;;;;5.23;4.50;;;;;;;10.31;99.87;96299.59;5012129;28;20451;-77
2021/08/17 05:57:54;;;;;;;6.43;4.80;;;;;;;10.45;100.00;96306.59;5013914;28;20595;-77
2021/08/17 06:00:21;;;;;;;6.13;4.35;;;;;;;10.46;100.00;96308.31;5013701;28;20417;-76
2021/08/17 06:02:46;;;;;;;7.10;4.85;;;;;;;10.62;100.00;96305.72;5010842;28;20528;-76
2021/08/17 06:05:12;;;;;;;6.63;4.53;;;;;;;10.81;99.65;96324.50;4996732;28;20486;-76
2021/08/17 06:07:37;;;;;;;6.50;5.27;;;;;;;10.77;99.23;96323.00;4994661;28;20450;-76
2021/08/17 06:10:03;;;;;;;9.00;5.10;;;;;;;10.90;98.92;96308.47;4996055;28;20422;-75
2021/08/17 06:12:29;;;;;;;8.95;4.70;;;;;;;10.76;100.00;96317.91;4995599;28;20414;-75
2021/08/17 06:14:54;;;;;;;6.00;5.00;;;;;;;10.74;100.00;96311.97;4996020;28;20847;-75
2021/08/17 06:17:21;;;;;;;6.73;4.83;;;;;;;10.86;100.00;96306.97;4996001;28;20892;-75
2021/08/17 06:19:46;;;;;;;6.30;5.32;;;;;;;10.98;100.00;96307.22;4995746;28;20429;-75
2021/08/17 06:22:12;;;;;;;7.07;5.07;;;;;;;11.16;99.49;96303.59;4994879;28;20915;-75
2021/08/17 06:24:37;;;;;;;6.87;4.83;;;;;;;11.35;100.00;96311.97;4994165;28;20419;-75
2021/08/17 06:27:03;;;;;;;7.85;5.35;;;;;;;11.46;98.80;96310.50;4994164;28;20426;-76
2021/08/17 06:29:28;;;;;;;7.93;5.47;;;;;;;11.60;98.11;96319.16;4995397;28;20426;-75
2021/08/17 06:31:54;;;;;;;7.20;4.90;;;;;;;11.78;96.48;96322.44;4997162;28;20453;-75
2021/08/17 06:34:20;;;;;;;8.77;5.40;;;;;;;12.14;95.08;96316.03;5014890;28;20452;-75
2021/08/17 06:36:46;;;;;;;5.63;5.07;;;;;;;12.11;92.87;96313.63;5014422;28;20412;-75
2021/08/17 06:39:12;;;;;;;6.03;5.43;;;;;;;12.02;93.41;96320.22;5013168;28;20433;-75
2021/08/17 06:41:38;;;;;;;7.03;5.68;;;;;;;12.11;92.83;96319.63;5013916;28;20811;-77
2021/08/17 06:44:03;;;;;;;6.70;5.60;;;;;;;12.34;92.78;96320.00;5013267;28;20420;-76
2021/08/17 06:46:29;;;;;;;10.68;6.18;;;;;;;12.45;92.86;96320.19;5012199;28;20431;-75
2021/08/17 06:48:55;;;;;;;6.07;5.40;;;;;;;12.38;93.31;96320.66;5013085;28;20465;-75
2021/08/17 06:51:21;;;;;;;10.07;5.78;;;;;;;12.44;92.56;96326.31;5011863;28;20425;-76
2021/08/17 06:53:47;;;;;;;7.90;6.30;;;;;;;12.61;93.95;96327.88;5012798;28;20794;-76
2021/08/17 06:56:13;;;;;;;6.88;5.63;;;;;;;12.77;92.02;96326.00;5004601;28;20430;-75
2021/08/17 06:58:38;;;;;;;9.02;6.43;;;;;;;12.73;90.74;96321.09;5010324;28;20456;-75
2021/08/17 07:01:04;;;;;;;8.48;6.60;;;;;;;12.99;90.65;96317.69;5012542;28;20427;-78
2021/08/17 07:03:30;;;;;;;10.98;6.68;;;;;;;13.16;89.31;96318.34;5013035;28;20899;-78
2021/08/17 07:05:57;;;;;;;10.60;6.70;;;;;;;12.94;89.67;96329.28;5028877;28;20434;-78
2021/08/17 07:08:25;;;;;;;7.75;6.85;;;;;;;12.74;90.18;96333.16;5011692;28;20429;-78
2021/08/17 07:10:50;;;;;;;7.32;6.53;;;;;;;12.66;92.16;96330.19;4993311;28;20492;-78
2021/08/17 07:13:16;;;;;;;10.38;6.53;;;;;;;12.74;92.38;96328.78;4994765;28;20418;-78
2021/08/17 07:15:42;;;;;;;10.05;6.45;;;;;;;12.82;93.70;96346.50;4995893;28;20461;-79
2021/08/17 07:18:08;;;;;;;10.35;7.30;;;;;;;12.86;89.82;96339.34;5002064;28;20423;-79
2021/08/17 07:20:39;;;;;;;9.65;8.52;;;;;;;12.93;87.88;96332.81;5013899;28;20417;-79
2021/08/17 07:23:04;;;;;;;11.32;8.85;;;;;;;12.83;85.92;96332.59;5011485;28;20427;-78
2021/08/17 07:25:31;;;;;;;12.43;9.33;;;;;;;12.77;87.30;96340.75;4999960;28;20856;-78
2021/08/17 07:27:57;;;;;;;15.75;9.95;;;;;;;12.63;87.30;96352.00;5003358;28;20430;-79
2021/08/17 07:30:22;;;;;;;14.43;9.90;;;;;;;12.72;86.69;96340.19;5004401;28;20428;-78
2021/08/17 07:32:48;;;;;;;16.50;9.47;;;;;;;13.00;82.86;96347.09;5010342;28;20417;-79
2021/08/17 07:35:17;;;;;;;11.67;9.33;;;;;;;13.16;81.83;96344.34;5012256;28;20503;-77
2021/08/17 07:37:44;;;;;;;14.30;8.60;;;;;;;13.41;79.56;96346.25;5012108;28;20421;-75
2021/08/17 07:40:11;;;;;;;13.98;9.57;;;;;;;13.46;78.53;96344.19;5005229;28;20841;-75
2021/08/17 07:42:38;;;;;;;10.67;9.47;;;;;;;13.73;79.32;96346.75;5003921;28;20424;-76
2021/08/17 07:45:05;;;;;;;9.25;8.23;;;;;;;13.85;73.53;96345.09;5011623;28;20479;-75
2021/08/17 07:47:32;;;;;;;10.30;8.07;;;;;;;13.88;73.07;96342.31;5011559;28;20424;-78
2021/08/17 07:50:01;;;;;;;11.45;8.00;;;;;;;13.97;74.12;96350.31;4995733;28;20937;-77
2021/08/17 07:52:26;;;;;;;11.17;7.40;;;;;;;13.90;72.23;96345.63;5011994;28;20424;-75
2021/08/17 07:54:51;;;;;;;9.10;7.60;;;;;;;14.03;73.43;96349.91;5011828;28;20814;-76
2021/08/17 07:57:17;;;;;;;8.77;7.50;;;;;;;14.06;74.03;96348.88;5009430;28;20472;-76
2021/08/17 07:59:44;;;;;;;10.63;6.97;;;;;;;14.54;71.79;96337.84;4990918;28;20438;-76
2021/08/17 08:02:09;;;;;;;12.48;7.10;;;;;;;14.26;69.54;96350.13;4991431;28;20430;-76
2021/08/17 08:04:35;;;;;;;8.87;7.60;;;;;;;14.70;68.32;96339.28;4992483;28;20441;-76
2021/08/17 08:07:00;;;;;;;7.45;6.65;;;;;;;14.41;69.64;96345.63;4997692;28;20910;-76
2021/08/17 08:09:26;;;;;;;7.83;6.73;;;;;;;14.36;68.95;96338.16;5010429;28;20867;-76
2021/08/17 08:11:52;;;;;;;14.00;6.93;;;;;;;14.29;68.13;96345.53;5026197;28;20421;-75
2021/08/17 08:14:17;;;;;;;9.48;7.05;;;;;;;14.09;70.10;96348.69;5007098;28;20424;-76
2021/08/17 08:16:44;;;;;;;10.13;7.43;;;;;;;14.15;69.39;96344.81;5011238;28;20487;-75
2021/08/17 08:19:09;;;;;;;8.98;6.90;;;;;;;14.39;66.42;96339.72;5011464;28;20795;-75
2021/08/17 08:21:35;;;;;;;8.80;5.97;;;;;;;14.72;64.87;96340.00;5026198;28;20421;-75
2021/08/17 08:24:01;;;;;;;8.67;6.37;;;;;;;14.91;65.70;96334.31;5012185;28;20541;-75
2021/08/17 08:26:26;;;;;;;8.48;6.88;;;;;;;15.07;64.96;96338.44;5012594;28;20523;-75
2021/08/17 08:28:52;;;;;;;9.02;6.57;;;;;;;14.84;66.14;96345.31;5027293;28;20815;-75
2021/08/17 08:31:18;;;;;;;11.63;6.88;;;;;;;14.70;65.93;96343.66;5026514;28;20988;-75
2021/08/17 08:33:44;;;;;;;11.15;6.30;;;;;;;14.61;66.24;96339.06;5010881;28;20446;-76
2021/08/17 08:36:10;;;;;;;8.18;6.40;;;;;;;14.45;64.72;96339.28;5011026;28;20819;-76
2021/08/17 08:38:36;;;;;;;6.90;6.10;;;;;;;14.51;65.43;96341.50;5011265;28;20428;-76
2021/08/17 08:41:01;;;;;;;7.88;5.90;;;;;;;14.01;64.08;96350.94;5025913;28;20437;-76
2021/08/17 08:43:27;;;;;;;12.05;6.72;;;;;;;13.91;69.42;96366.38;5011160;28;20435;-77
2021/08/17 08:45:52;;;;;;;10.48;6.63;;;;;;;13.70;67.56;96366.00;5009716;28;20436;-76
2021/08/17 08:48:22;;;;;;;7.67;6.20;;;;;;;13.87;67.40;96369.25;5011494;28;20421;-74
2021/08/17 08:50:51;;;;;;;9.73;5.82;;;;;;;14.07;64.32;96379.19;5011943;28;20419;-74
2021/08/17 08:53:19;;;;;;;9.23;6.17;;;;;;;14.15;63.91;96376.91;5014853;28;20426;-74
2021/08/17 08:55:44;;;;;;;8.15;6.05;;;;;;;14.21;65.07;96376.50;5014351;28;20467;-76
2021/08/17 08:58:10;;;;;;;10.77;6.30;;;;;;;14.47;62.41;96361.69;5014967;28;20416;-74
2021/08/17 09:00:36;;;;;;;8.00;5.70;;;;;;;14.42;62.23;96357.72;5014772;28;20429;-75
2021/08/17 09:03:01;;;;;;;8.63;5.73;;;;;;;14.37;61.26;96354.59;5014161;28;20432;-75
2021/08/17 09:05:27;;;;;;;6.93;6.22;;;;;;;14.57;64.24;96358.47;5009849;28;20420;-77
2021/08/17 09:07:56;;;;;;;8.30;6.53;;;;;;;14.51;64.34;96368.38;5013158;28;21001;-76
2021/08/17 09:10:24;;;;;;;8.98;5.80;;;;;;;14.29;63.31;96363.78;5014366;28;20850;-78
2021/08/17 09:12:52;;;;;;;10.23;6.37;;;;;;;14.04;63.04;96368.97;5014793;28;20898;-76
2021/08/17 09:15:19;;;;;;;9.60;6.10;;;;;;;14.08;66.12;96372.22;5008412;28;20921;-79
2021/08/17 09:18:00;;;;;;;13.63;6.55;;;;;;;14.13;64.76;96370.16;5007438;28;20544;-77
2021/08/17 09:20:33;;;;;;;8.35;6.72;;;;;;;13.97;65.59;96363.34;5006166;28;20460;-74
2021/08/17 09:23:18;;;;;;;9.20;6.80;;;;;;;13.89;67.18;96356.97;5001275;28;20429;-77
2021/08/17 09:25:43;;;;;;;9.73;6.35;;;;;;;14.06;69.46;96359.31;4999699;28;20774;-77
2021/08/17 09:28:27;;;;;;;8.20;6.17;;;;;;;14.00;65.57;96364.91;4995055;28;20428;-77
2021/08/17 09:30:53;;;;;;;6.97;5.97;;;;;;;14.11;66.86;96367.63;5006251;28;20420;-74
2021/08/17 09:33:18;;;;;;;8.80;6.05;;;;;;;14.43;64.25;96356.81;5015414;28;20416;-76
2021/08/17 09:35:44;;;;;;;7.87;6.47;;;;;;;14.44;64.42;96366.28;5015513;28;20460;-75
2021/08/17 09:38:14;;;;;;;10.82;7.03;;;;;;;14.34;65.93;96357.41;5014961;28;20763;-75
2021/08/17 09:40:40;;;;;;;9.13;6.20;;;;;;;14.25;64.35;96356.28;5012328;28;20420;-75
2021/08/17 09:43:14;;;;;;;9.50;6.70;;;;;;;14.17;65.41;96356.81;5007106;28;20428;-75
2021/08/17 09:45:41;;;;;;;7.28;6.30;;;;;;;14.24;64.57;96345.03;5010924;28;20429;-78
2021/08/17 09:48:06;;;;;;;8.75;7.18;;;;;;;14.41;64.33;96358.66;5001949;28;20422;-78
2021/08/17 09:50:37;;;;;;;10.35;6.35;;;;;;;14.84;64.42;96337.47;5010766;28;20790;-77
2021/08/17 09:53:08;;;;;;;8.25;6.00;;;;;;;14.79;61.64;96334.34;5002507;28;20714;-78
2021/08/17 09:55:45;;;;;;;9.10;6.03;;;;;;;14.50;62.40;96335.44;5003169;28;20849;-77
2021/08/17 09:58:19;;;;;;;7.05;5.80;;;;;;;14.42;58.32;96327.28;5004148;28;21091;-77
2021/08/17 10:00:45;;;;;;;7.35;6.35;;;;;;;14.35;59.92;96330.41;5008351;28;20428;-77
2021/08/17 10:03:11;;;;;;;7.38;6.10;;;;;;;14.59;61.16;96328.75;5006898;28;20425;-77
2021/08/17 10:05:38;;;;;;;7.53;5.68;;;;;;;14.88;57.84;96326.72;5009556;28;20423;-78
2021/08/17 10:08:05;;;;;;;4.82;4.22;;;;;;;14.67;54.41;96325.63;5000855;28;20824;-77
2021/08/17 10:10:31;;;;;;;6.40;4.57;;;;;;;14.70;54.73;96328.00;5004490;28;20422;-77
2021/08/17 10:12:59;;;;;;;6.37;5.13;;;;;;;14.87;55.90;96326.81;5001583;28;20508;-77
2021/08/17 10:15:25;;;;;;;6.10;5.47;;;;;;;15.06;55.45;96324.56;5003617;28;20416;-77
2021/08/17 10:17:51;;;;;;;5.40;4.78;;;;;;;15.80;53.84;96319.22;5003896;28;20486;-77
2021/08/17 10:20:18;;;;;;;7.13;5.97;;;;;;;15.94;54.17;96313.75;5013307;28;20504;-78
2021/08/17 10:22:44;;;;;;;8.40;5.17;;;;;;;16.23;53.24;96308.94;5011553;28;20439;-77
2021/08/17 10:25:17;;;;;;;6.80;5.10;;;;;;;15.87;52.56;96320.38;5013030;28;20421;-78
2021/08/17 10:27:43;;;;;;;6.18;4.60;;;;;;;15.88;50.87;96315.06;5013184;28;20966;-77
2021/08/17 10:30:17;;;;;;;7.15;4.70;;;;;;;15.36;52.21;96318.06;5013067;28;20992;-77
2021/08/17 10:32:48;;;;;;;6.28;4.32;;;;;;;15.37;52.75;96317.94;5011588;28;20425;-77
2021/08/17 10:35:45;;;;;;;6.10;4.90;;;;;;;15.59;53.84;96313.75;5012832;28;20425;-77
2021/08/17 10:38:34;;;;;;;7.43;5.33;;;;;;;15.70;53.44;96285.09;5011302;28;20468;-77
2021/08/17 10:41:03;;;;;;;6.72;5.53;;;;;;;15.82;53.64;96284.16;5010014;28;20428;-77
2021/08/17 10:44:13;;;;;;;7.13;6.00;;;;;;;15.59;58.16;96278.03;5011538;28;20428;-77
2021/08/17 10:46:46;;;;;;;6.00;4.72;;;;;;;15.76;52.19;96284.66;5010739;28;20942;-77
2021/08/17 10:49:27;;;;;;;5.80;4.80;;;;;;;15.48;52.79;96289.28;5011054;28;20435;-75
2021/08/17 10:51:54;;;;;;;7.18;5.18;;;;;;;15.56;54.65;96291.31;5009246;28;20421;-76
2021/08/17 10:54:20;;;;;;;6.20;5.27;;;;;;;15.44;56.69;96282.63;5006017;28;20484;-75
2021/08/17 10:56:49;;;;;;;9.63;5.37;;;;;;;15.71;54.17;96276.31;4992956;28;20820;-76
2021/08/17 10:59:39;;;;;;;9.27;5.90;;;;;;;16.03;nan;96283.50;5006537;28;20417;-76
2021/08/17 11:02:06;;;;;;;6.20;5.10;;;;;;;16.37;53.79;96259.03;5011238;28;20512;-75
2021/08/17 11:04:37;;;;;;;7.07;5.18;;;;;;;16.24;54.06;96268.78;5012268;28;20435;-77
2021/08/17 11:07:21;;;;;;;6.75;5.35;;;;;;;16.66;56.25;96269.81;5013121;28;20448;-78
2021/08/17 11:09:47;;;;;;;6.83;5.20;;;;;;;16.25;54.38;96270.44;5014278;28;20898;-78
2021/08/17 11:12:13;;;;;;;5.80;5.20;;;;;;;16.36;54.09;96267.00;5013828;28;20495;-78
2021/08/17 11:14:40;;;;;;;7.67;5.13;;;;;;;16.35;55.55;96252.25;5012706;28;20452;-77
2021/08/17 11:17:09;;;;;;;6.40;5.25;;;;;;;16.17;55.33;96250.13;5013461;28;20468;-78
2021/08/17 11:19:36;;;;;;;8.43;5.13;;;;;;;16.45;54.36;96242.75;4994761;28;20422;-78
2021/08/17 11:22:05;;;;;;;6.47;5.40;;;;;;;16.28;53.79;96244.09;4992377;28;20433;-79
2021/08/17 11:24:32;;;;;;;6.18;4.90;;;;;;;16.23;55.21;96248.00;4994184;28;20446;-78
2021/08/17 11:26:59;;;;;;;8.07;5.63;;;;;;;16.20;54.61;96236.84;4998888;28;20650;-78
2021/08/17 11:29:27;;;;;;;10.32;5.75;;;;;;;16.34;54.41;96240.97;5001294;28;20450;-78
2021/08/17 11:31:58;;;;;;;7.45;4.97;;;;;;;16.55;52.76;96241.06;5000917;28;21003;-78